sensor_id;sensor_type;location;lat;lon;timestamp;P1;durP1;ratioP1;P2;durP2;ratioP2
51686;SDS011;37774;52.192;4.584;2024-03-07T00:00:07;74.10;;;26.42;;
51686;SDS011;37774;52.192;4.584;2024-03-07T00:02:58;79.82;;;25.80;;
51686;SDS011;37774;52.192;4.584;2024-03-07T00:05:44;77.68;;;26.30;;
51686;SDS011;37774;52.192;4.584;2024-03-07T00:08:29;75.18;;;24.35;;
51686;SDS011;37774;52.192;4.584;2024-03-07T00:11:14;68.22;;;23.25;;
51686;SDS011;37774;52.192;4.584;2024-03-07T00:14:01;76.13;;;26.70;;
51686;SDS011;37774;52.192;4.584;2024-03-07T00:16:46;75.43;;;26.25;;
51686;SDS011;37774;52.192;4.584;2024-03-07T00:19:31;74.00;;;25.13;;
51686;SDS011;37774;52.192;4.584;2024-03-07T00:22:16;58.45;;;22.58;;
51686;SDS011;37774;52.192;4.584;2024-03-07T00:25:02;71.82;;;26.25;;
51686;SDS011;37774;52.192;4.584;2024-03-07T00:27:48;75.47;;;26.02;;
51686;SDS011;37774;52.192;4.584;2024-03-07T00:30:38;71.43;;;23.80;;
51686;SDS011;37774;52.192;4.584;2024-03-07T00:33:23;86.95;;;25.70;;
51686;SDS011;37774;52.192;4.584;2024-03-07T00:36:09;81.87;;;27.70;;
51686;SDS011;37774;52.192;4.584;2024-03-07T00:38:54;73.03;;;24.70;;
51686;SDS011;37774;52.192;4.584;2024-03-07T00:41:40;72.82;;;24.55;;
51686;SDS011;37774;52.192;4.584;2024-03-07T00:44:25;63.90;;;24.25;;
51686;SDS011;37774;52.192;4.584;2024-03-07T00:47:11;81.15;;;27.88;;
51686;SDS011;37774;52.192;4.584;2024-03-07T00:49:57;70.78;;;25.60;;
51686;SDS011;37774;52.192;4.584;2024-03-07T00:52:42;68.20;;;24.83;;
51686;SDS011;37774;52.192;4.584;2024-03-07T00:55:27;61.20;;;22.05;;
51686;SDS011;37774;52.192;4.584;2024-03-07T00:58:12;75.35;;;24.80;;
51686;SDS011;37774;52.192;4.584;2024-03-07T01:00:57;63.00;;;22.38;;
51686;SDS011;37774;52.192;4.584;2024-03-07T01:03:44;74.85;;;25.92;;
51686;SDS011;37774;52.192;4.584;2024-03-07T01:06:29;80.03;;;26.42;;
51686;SDS011;37774;52.192;4.584;2024-03-07T01:09:14;93.72;;;27.35;;
51686;SDS011;37774;52.192;4.584;2024-03-07T01:12:01;87.53;;;25.95;;
51686;SDS011;37774;52.192;4.584;2024-03-07T01:14:48;73.88;;;24.38;;
51686;SDS011;37774;52.192;4.584;2024-03-07T01:17:33;82.22;;;26.95;;
51686;SDS011;37774;52.192;4.584;2024-03-07T01:20:19;79.60;;;28.38;;
51686;SDS011;37774;52.192;4.584;2024-03-07T01:23:04;82.50;;;27.23;;
51686;SDS011;37774;52.192;4.584;2024-03-07T01:25:51;96.35;;;26.95;;
51686;SDS011;37774;52.192;4.584;2024-03-07T01:28:37;76.25;;;26.38;;
51686;SDS011;37774;52.192;4.584;2024-03-07T01:31:22;64.97;;;24.73;;
51686;SDS011;37774;52.192;4.584;2024-03-07T01:34:07;74.95;;;27.63;;
51686;SDS011;37774;52.192;4.584;2024-03-07T01:36:53;77.88;;;26.55;;
51686;SDS011;37774;52.192;4.584;2024-03-07T01:39:38;74.68;;;24.83;;
51686;SDS011;37774;52.192;4.584;2024-03-07T01:42:24;81.10;;;26.42;;
51686;SDS011;37774;52.192;4.584;2024-03-07T01:45:09;84.32;;;28.60;;
51686;SDS011;37774;52.192;4.584;2024-03-07T01:47:54;71.75;;;25.20;;
51686;SDS011;37774;52.192;4.584;2024-03-07T01:50:40;73.35;;;26.40;;
51686;SDS011;37774;52.192;4.584;2024-03-07T01:53:26;96.88;;;29.33;;
51686;SDS011;37774;52.192;4.584;2024-03-07T01:56:11;79.30;;;27.55;;
51686;SDS011;37774;52.192;4.584;2024-03-07T01:58:57;90.55;;;27.63;;
51686;SDS011;37774;52.192;4.584;2024-03-07T02:01:43;70.55;;;25.23;;
51686;SDS011;37774;52.192;4.584;2024-03-07T02:04:30;95.47;;;26.00;;
51686;SDS011;37774;52.192;4.584;2024-03-07T02:07:15;73.05;;;25.42;;
51686;SDS011;37774;52.192;4.584;2024-03-07T02:10:01;79.25;;;26.23;;
51686;SDS011;37774;52.192;4.584;2024-03-07T02:12:47;78.13;;;28.42;;
51686;SDS011;37774;52.192;4.584;2024-03-07T02:15:32;77.75;;;25.58;;
51686;SDS011;37774;52.192;4.584;2024-03-07T02:18:17;73.15;;;27.23;;
51686;SDS011;37774;52.192;4.584;2024-03-07T02:21:06;78.75;;;25.88;;
51686;SDS011;37774;52.192;4.584;2024-03-07T02:23:52;72.93;;;26.40;;
51686;SDS011;37774;52.192;4.584;2024-03-07T02:26:38;83.28;;;26.73;;
51686;SDS011;37774;52.192;4.584;2024-03-07T02:29:23;74.30;;;25.83;;
51686;SDS011;37774;52.192;4.584;2024-03-07T02:32:08;73.15;;;26.02;;
51686;SDS011;37774;52.192;4.584;2024-03-07T02:34:53;89.22;;;29.02;;
51686;SDS011;37774;52.192;4.584;2024-03-07T02:37:40;83.90;;;27.92;;
51686;SDS011;37774;52.192;4.584;2024-03-07T02:40:25;84.93;;;26.70;;
51686;SDS011;37774;52.192;4.584;2024-03-07T02:43:10;80.82;;;27.40;;
51686;SDS011;37774;52.192;4.584;2024-03-07T02:45:55;79.63;;;28.73;;
51686;SDS011;37774;52.192;4.584;2024-03-07T02:48:41;95.38;;;27.55;;
51686;SDS011;37774;52.192;4.584;2024-03-07T02:51:26;86.10;;;29.17;;
51686;SDS011;37774;52.192;4.584;2024-03-07T02:54:13;87.22;;;29.95;;
51686;SDS011;37774;52.192;4.584;2024-03-07T02:56:58;90.18;;;28.75;;
51686;SDS011;37774;52.192;4.584;2024-03-07T02:59:43;75.43;;;25.92;;
51686;SDS011;37774;52.192;4.584;2024-03-07T03:02:28;96.72;;;28.92;;
51686;SDS011;37774;52.192;4.584;2024-03-07T03:05:13;78.05;;;25.60;;
51686;SDS011;37774;52.192;4.584;2024-03-07T03:07:58;88.20;;;29.30;;
51686;SDS011;37774;52.192;4.584;2024-03-07T03:10:45;92.10;;;29.08;;
51686;SDS011;37774;52.192;4.584;2024-03-07T03:13:30;81.95;;;30.10;;
51686;SDS011;37774;52.192;4.584;2024-03-07T03:16:15;81.80;;;28.10;;
51686;SDS011;37774;52.192;4.584;2024-03-07T03:19:00;88.25;;;29.00;;
51686;SDS011;37774;52.192;4.584;2024-03-07T03:21:45;68.78;;;25.77;;
51686;SDS011;37774;52.192;4.584;2024-03-07T03:24:30;84.03;;;27.13;;
51686;SDS011;37774;52.192;4.584;2024-03-07T03:27:17;82.88;;;27.88;;
51686;SDS011;37774;52.192;4.584;2024-03-07T03:30:02;80.32;;;27.25;;
51686;SDS011;37774;52.192;4.584;2024-03-07T03:32:47;92.95;;;29.50;;
51686;SDS011;37774;52.192;4.584;2024-03-07T03:35:33;89.63;;;29.45;;
51686;SDS011;37774;52.192;4.584;2024-03-07T03:38:18;96.22;;;29.02;;
51686;SDS011;37774;52.192;4.584;2024-03-07T03:41:04;90.20;;;28.85;;
51686;SDS011;37774;52.192;4.584;2024-03-07T03:43:50;84.55;;;25.27;;
51686;SDS011;37774;52.192;4.584;2024-03-07T03:46:36;99.85;;;29.13;;
51686;SDS011;37774;52.192;4.584;2024-03-07T03:49:22;96.03;;;29.15;;
51686;SDS011;37774;52.192;4.584;2024-03-07T03:52:07;82.68;;;29.65;;
51686;SDS011;37774;52.192;4.584;2024-03-07T03:54:52;84.78;;;29.67;;
51686;SDS011;37774;52.192;4.584;2024-03-07T03:57:37;89.43;;;31.35;;
51686;SDS011;37774;52.192;4.584;2024-03-07T04:00:24;98.35;;;30.98;;
51686;SDS011;37774;52.192;4.584;2024-03-07T04:03:09;90.88;;;29.50;;
51686;SDS011;37774;52.192;4.584;2024-03-07T04:05:54;97.88;;;31.75;;
51686;SDS011;37774;52.192;4.584;2024-03-07T04:08:39;103.22;;;32.92;;
51686;SDS011;37774;52.192;4.584;2024-03-07T04:11:24;100.07;;;31.48;;
51686;SDS011;37774;52.192;4.584;2024-03-07T04:14:10;88.43;;;31.23;;
51686;SDS011;37774;52.192;4.584;2024-03-07T04:16:57;84.30;;;29.13;;
51686;SDS011;37774;52.192;4.584;2024-03-07T04:19:42;104.57;;;31.58;;
51686;SDS011;37774;52.192;4.584;2024-03-07T04:22:27;106.63;;;33.92;;
51686;SDS011;37774;52.192;4.584;2024-03-07T04:25:12;87.18;;;31.50;;
51686;SDS011;37774;52.192;4.584;2024-03-07T04:27:58;85.50;;;32.88;;
51686;SDS011;37774;52.192;4.584;2024-03-07T04:30:43;89.50;;;31.20;;
51686;SDS011;37774;52.192;4.584;2024-03-07T04:33:29;80.07;;;27.42;;
51686;SDS011;37774;52.192;4.584;2024-03-07T04:36:15;102.15;;;31.42;;
51686;SDS011;37774;52.192;4.584;2024-03-07T04:39:00;85.82;;;27.25;;
51686;SDS011;37774;52.192;4.584;2024-03-07T04:41:47;100.90;;;29.83;;
51686;SDS011;37774;52.192;4.584;2024-03-07T04:44:33;96.72;;;30.33;;
51686;SDS011;37774;52.192;4.584;2024-03-07T04:47:19;92.47;;;31.30;;
51686;SDS011;37774;52.192;4.584;2024-03-07T04:50:06;78.82;;;30.83;;
51686;SDS011;37774;52.192;4.584;2024-03-07T04:52:54;71.68;;;27.10;;
51686;SDS011;37774;52.192;4.584;2024-03-07T04:55:39;82.72;;;28.38;;
51686;SDS011;37774;52.192;4.584;2024-03-07T04:58:24;97.03;;;30.17;;
51686;SDS011;37774;52.192;4.584;2024-03-07T05:01:09;80.38;;;29.17;;
51686;SDS011;37774;52.192;4.584;2024-03-07T05:03:54;87.15;;;28.48;;
51686;SDS011;37774;52.192;4.584;2024-03-07T05:06:41;87.95;;;28.75;;
51686;SDS011;37774;52.192;4.584;2024-03-07T05:09:27;80.45;;;28.48;;
51686;SDS011;37774;52.192;4.584;2024-03-07T05:12:12;92.05;;;31.65;;
51686;SDS011;37774;52.192;4.584;2024-03-07T05:14:57;92.75;;;28.30;;
51686;SDS011;37774;52.192;4.584;2024-03-07T05:17:42;86.35;;;29.23;;
51686;SDS011;37774;52.192;4.584;2024-03-07T05:20:28;93.82;;;29.88;;
51686;SDS011;37774;52.192;4.584;2024-03-07T05:23:15;87.82;;;30.10;;
51686;SDS011;37774;52.192;4.584;2024-03-07T05:26:00;85.95;;;29.38;;
51686;SDS011;37774;52.192;4.584;2024-03-07T05:28:46;77.47;;;28.55;;
51686;SDS011;37774;52.192;4.584;2024-03-07T05:31:31;98.68;;;29.70;;
51686;SDS011;37774;52.192;4.584;2024-03-07T05:34:18;77.07;;;28.00;;
51686;SDS011;37774;52.192;4.584;2024-03-07T05:37:03;70.97;;;27.58;;
51686;SDS011;37774;52.192;4.584;2024-03-07T05:39:50;91.60;;;28.92;;
51686;SDS011;37774;52.192;4.584;2024-03-07T05:42:35;85.57;;;31.30;;
51686;SDS011;37774;52.192;4.584;2024-03-07T05:45:20;98.97;;;32.50;;
51686;SDS011;37774;52.192;4.584;2024-03-07T05:48:13;84.68;;;28.52;;
51686;SDS011;37774;52.192;4.584;2024-03-07T05:51:00;74.43;;;27.08;;
51686;SDS011;37774;52.192;4.584;2024-03-07T05:53:46;79.10;;;28.45;;
51686;SDS011;37774;52.192;4.584;2024-03-07T05:56:33;92.15;;;27.70;;
51686;SDS011;37774;52.192;4.584;2024-03-07T05:59:19;80.25;;;29.13;;
51686;SDS011;37774;52.192;4.584;2024-03-07T06:02:04;81.25;;;28.20;;
51686;SDS011;37774;52.192;4.584;2024-03-07T06:04:50;94.22;;;31.63;;
51686;SDS011;37774;52.192;4.584;2024-03-07T06:07:35;88.13;;;28.33;;
51686;SDS011;37774;52.192;4.584;2024-03-07T06:10:20;85.68;;;27.25;;
51686;SDS011;37774;52.192;4.584;2024-03-07T06:13:09;80.00;;;29.30;;
51686;SDS011;37774;52.192;4.584;2024-03-07T06:15:55;94.20;;;30.17;;
51686;SDS011;37774;52.192;4.584;2024-03-07T06:18:40;84.10;;;27.48;;
51686;SDS011;37774;52.192;4.584;2024-03-07T06:21:25;89.38;;;29.50;;
51686;SDS011;37774;52.192;4.584;2024-03-07T06:24:10;89.50;;;29.75;;
51686;SDS011;37774;52.192;4.584;2024-03-07T06:26:58;101.20;;;29.42;;
51686;SDS011;37774;52.192;4.584;2024-03-07T06:29:48;85.07;;;28.23;;
51686;SDS011;37774;52.192;4.584;2024-03-07T06:35:21;75.75;;;30.27;;
51686;SDS011;37774;52.192;4.584;2024-03-07T06:38:06;85.18;;;26.23;;
51686;SDS011;37774;52.192;4.584;2024-03-07T06:40:51;67.85;;;26.27;;
51686;SDS011;37774;52.192;4.584;2024-03-07T06:43:37;70.00;;;28.23;;
51686;SDS011;37774;52.192;4.584;2024-03-07T06:46:24;72.18;;;28.10;;
51686;SDS011;37774;52.192;4.584;2024-03-07T06:49:09;72.22;;;27.95;;
51686;SDS011;37774;52.192;4.584;2024-03-07T06:51:54;94.20;;;29.75;;
51686;SDS011;37774;52.192;4.584;2024-03-07T06:54:39;74.95;;;25.95;;
51686;SDS011;37774;52.192;4.584;2024-03-07T06:57:24;80.63;;;29.77;;
51686;SDS011;37774;52.192;4.584;2024-03-07T07:00:10;74.55;;;29.50;;
51686;SDS011;37774;52.192;4.584;2024-03-07T07:02:57;71.30;;;26.90;;
51686;SDS011;37774;52.192;4.584;2024-03-07T07:05:42;89.20;;;29.98;;
51686;SDS011;37774;52.192;4.584;2024-03-07T07:08:28;80.57;;;29.88;;
51686;SDS011;37774;52.192;4.584;2024-03-07T07:11:14;82.47;;;29.98;;
51686;SDS011;37774;52.192;4.584;2024-03-07T07:13:59;78.13;;;26.10;;
51686;SDS011;37774;52.192;4.584;2024-03-07T07:16:44;85.00;;;30.20;;
51686;SDS011;37774;52.192;4.584;2024-03-07T07:19:30;83.53;;;30.13;;
51686;SDS011;37774;52.192;4.584;2024-03-07T07:22:16;95.13;;;31.42;;
51686;SDS011;37774;52.192;4.584;2024-03-07T07:25:01;87.70;;;30.23;;
51686;SDS011;37774;52.192;4.584;2024-03-07T07:27:48;67.50;;;27.58;;
51686;SDS011;37774;52.192;4.584;2024-03-07T07:30:34;67.22;;;26.48;;
51686;SDS011;37774;52.192;4.584;2024-03-07T07:33:19;81.32;;;29.13;;
51686;SDS011;37774;52.192;4.584;2024-03-07T07:36:06;87.65;;;26.98;;
51686;SDS011;37774;52.192;4.584;2024-03-07T07:38:51;69.40;;;27.35;;
51686;SDS011;37774;52.192;4.584;2024-03-07T07:41:36;91.28;;;30.63;;
51686;SDS011;37774;52.192;4.584;2024-03-07T07:44:21;82.10;;;27.40;;
51686;SDS011;37774;52.192;4.584;2024-03-07T07:47:06;88.95;;;33.08;;
51686;SDS011;37774;52.192;4.584;2024-03-07T07:49:51;81.30;;;27.38;;
51686;SDS011;37774;52.192;4.584;2024-03-07T07:52:37;76.88;;;29.80;;
51686;SDS011;37774;52.192;4.584;2024-03-07T07:55:24;86.18;;;29.17;;
51686;SDS011;37774;52.192;4.584;2024-03-07T07:58:09;71.78;;;27.13;;
51686;SDS011;37774;52.192;4.584;2024-03-07T08:00:55;83.30;;;29.38;;
51686;SDS011;37774;52.192;4.584;2024-03-07T08:03:41;87.53;;;28.60;;
51686;SDS011;37774;52.192;4.584;2024-03-07T08:06:27;81.22;;;26.88;;
51686;SDS011;37774;52.192;4.584;2024-03-07T08:09:15;72.25;;;27.10;;
51686;SDS011;37774;52.192;4.584;2024-03-07T08:12:00;71.45;;;26.52;;
51686;SDS011;37774;52.192;4.584;2024-03-07T08:14:46;77.75;;;25.33;;
51686;SDS011;37774;52.192;4.584;2024-03-07T08:17:31;83.20;;;31.98;;
51686;SDS011;37774;52.192;4.584;2024-03-07T08:20:16;70.30;;;27.70;;
51686;SDS011;37774;52.192;4.584;2024-03-07T08:23:04;67.43;;;27.08;;
51686;SDS011;37774;52.192;4.584;2024-03-07T08:25:50;77.80;;;27.90;;
51686;SDS011;37774;52.192;4.584;2024-03-07T08:28:35;78.78;;;27.60;;
51686;SDS011;37774;52.192;4.584;2024-03-07T08:31:21;80.53;;;27.67;;
51686;SDS011;37774;52.192;4.584;2024-03-07T08:34:06;89.82;;;30.55;;
51686;SDS011;37774;52.192;4.584;2024-03-07T08:36:51;76.03;;;30.25;;
51686;SDS011;37774;52.192;4.584;2024-03-07T08:39:36;81.00;;;29.80;;
51686;SDS011;37774;52.192;4.584;2024-03-07T08:42:23;82.85;;;29.67;;
51686;SDS011;37774;52.192;4.584;2024-03-07T08:45:08;77.72;;;30.40;;
51686;SDS011;37774;52.192;4.584;2024-03-07T08:47:55;69.20;;;25.75;;
51686;SDS011;37774;52.192;4.584;2024-03-07T08:50:40;72.35;;;24.58;;
51686;SDS011;37774;52.192;4.584;2024-03-07T08:53:25;69.75;;;23.65;;
51686;SDS011;37774;52.192;4.584;2024-03-07T08:56:10;55.00;;;20.33;;
51686;SDS011;37774;52.192;4.584;2024-03-07T08:58:57;62.03;;;22.65;;
51686;SDS011;37774;52.192;4.584;2024-03-07T09:01:42;74.00;;;27.25;;
51686;SDS011;37774;52.192;4.584;2024-03-07T09:04:28;65.38;;;24.88;;
51686;SDS011;37774;52.192;4.584;2024-03-07T09:07:14;74.63;;;25.43;;
51686;SDS011;37774;52.192;4.584;2024-03-07T09:10:00;55.47;;;21.27;;
51686;SDS011;37774;52.192;4.584;2024-03-07T09:12:45;60.05;;;24.52;;
51686;SDS011;37774;52.192;4.584;2024-03-07T09:15:33;60.13;;;23.13;;
51686;SDS011;37774;52.192;4.584;2024-03-07T09:18:20;70.07;;;24.15;;
51686;SDS011;37774;52.192;4.584;2024-03-07T09:21:06;57.00;;;24.20;;
51686;SDS011;37774;52.192;4.584;2024-03-07T09:23:52;53.17;;;22.47;;
51686;SDS011;37774;52.192;4.584;2024-03-07T09:26:37;47.17;;;21.02;;
51686;SDS011;37774;52.192;4.584;2024-03-07T09:29:23;58.00;;;23.13;;
51686;SDS011;37774;52.192;4.584;2024-03-07T09:32:09;61.08;;;21.88;;
51686;SDS011;37774;52.192;4.584;2024-03-07T09:34:54;51.38;;;21.80;;
51686;SDS011;37774;52.192;4.584;2024-03-07T09:37:39;56.97;;;21.75;;
51686;SDS011;37774;52.192;4.584;2024-03-07T09:40:26;51.60;;;22.27;;
51686;SDS011;37774;52.192;4.584;2024-03-07T09:43:11;48.80;;;20.38;;
51686;SDS011;37774;52.192;4.584;2024-03-07T09:45:57;51.22;;;19.63;;
51686;SDS011;37774;52.192;4.584;2024-03-07T09:48:44;49.45;;;20.33;;
51686;SDS011;37774;52.192;4.584;2024-03-07T09:51:31;50.95;;;18.90;;
51686;SDS011;37774;52.192;4.584;2024-03-07T09:54:16;46.13;;;20.45;;
51686;SDS011;37774;52.192;4.584;2024-03-07T09:57:02;35.63;;;17.38;;
51686;SDS011;37774;52.192;4.584;2024-03-07T09:59:48;41.67;;;18.17;;
51686;SDS011;37774;52.192;4.584;2024-03-07T10:02:34;46.92;;;19.35;;
51686;SDS011;37774;52.192;4.584;2024-03-07T10:08:07;39.45;;;17.88;;
51686;SDS011;37774;52.192;4.584;2024-03-07T10:10:54;45.10;;;19.45;;
51686;SDS011;37774;52.192;4.584;2024-03-07T10:13:40;43.88;;;17.38;;
51686;SDS011;37774;52.192;4.584;2024-03-07T10:16:26;32.38;;;13.90;;
51686;SDS011;37774;52.192;4.584;2024-03-07T10:19:11;32.78;;;15.63;;
51686;SDS011;37774;52.192;4.584;2024-03-07T10:21:56;36.28;;;15.95;;
51686;SDS011;37774;52.192;4.584;2024-03-07T10:24:50;36.35;;;16.05;;
51686;SDS011;37774;52.192;4.584;2024-03-07T10:27:36;32.65;;;15.00;;
51686;SDS011;37774;52.192;4.584;2024-03-07T10:30:21;31.25;;;13.93;;
51686;SDS011;37774;52.192;4.584;2024-03-07T10:33:06;30.63;;;13.70;;
51686;SDS011;37774;52.192;4.584;2024-03-07T10:35:52;32.25;;;15.27;;
51686;SDS011;37774;52.192;4.584;2024-03-07T10:38:37;31.48;;;14.30;;
51686;SDS011;37774;52.192;4.584;2024-03-07T10:41:24;34.35;;;15.65;;
51686;SDS011;37774;52.192;4.584;2024-03-07T10:44:15;31.25;;;13.55;;
51686;SDS011;37774;52.192;4.584;2024-03-07T10:47:03;29.55;;;13.30;;
51686;SDS011;37774;52.192;4.584;2024-03-07T10:49:58;31.98;;;14.65;;
51686;SDS011;37774;52.192;4.584;2024-03-07T10:52:47;36.42;;;14.65;;
51686;SDS011;37774;52.192;4.584;2024-03-07T10:55:37;30.20;;;14.20;;
51686;SDS011;37774;52.192;4.584;2024-03-07T10:58:27;29.65;;;12.60;;
51686;SDS011;37774;52.192;4.584;2024-03-07T11:01:12;32.92;;;13.77;;
51686;SDS011;37774;52.192;4.584;2024-03-07T11:03:58;24.85;;;12.55;;
51686;SDS011;37774;52.192;4.584;2024-03-07T11:06:43;24.40;;;12.05;;
51686;SDS011;37774;52.192;4.584;2024-03-07T11:09:29;28.60;;;12.68;;
51686;SDS011;37774;52.192;4.584;2024-03-07T11:12:17;29.20;;;12.05;;
51686;SDS011;37774;52.192;4.584;2024-03-07T11:15:05;26.30;;;12.10;;
51686;SDS011;37774;52.192;4.584;2024-03-07T11:17:51;26.20;;;11.63;;
51686;SDS011;37774;52.192;4.584;2024-03-07T11:20:38;23.73;;;10.93;;
51686;SDS011;37774;52.192;4.584;2024-03-07T11:23:27;24.50;;;11.25;;
51686;SDS011;37774;52.192;4.584;2024-03-07T11:26:14;25.27;;;10.52;;
51686;SDS011;37774;52.192;4.584;2024-03-07T11:28:59;22.63;;;11.13;;
51686;SDS011;37774;52.192;4.584;2024-03-07T11:31:46;31.20;;;13.20;;
51686;SDS011;37774;52.192;4.584;2024-03-07T11:34:31;27.38;;;12.35;;
51686;SDS011;37774;52.192;4.584;2024-03-07T11:37:19;22.20;;;10.93;;
51686;SDS011;37774;52.192;4.584;2024-03-07T11:40:07;23.70;;;11.88;;
51686;SDS011;37774;52.192;4.584;2024-03-07T11:43:01;24.30;;;11.48;;
51686;SDS011;37774;52.192;4.584;2024-03-07T11:45:49;23.23;;;11.07;;
51686;SDS011;37774;52.192;4.584;2024-03-07T11:48:40;25.63;;;11.77;;
51686;SDS011;37774;52.192;4.584;2024-03-07T11:51:26;25.20;;;11.40;;
51686;SDS011;37774;52.192;4.584;2024-03-07T11:54:12;22.58;;;10.25;;
51686;SDS011;37774;52.192;4.584;2024-03-07T11:56:58;25.67;;;11.27;;
51686;SDS011;37774;52.192;4.584;2024-03-07T11:59:43;25.67;;;11.93;;
51686;SDS011;37774;52.192;4.584;2024-03-07T12:02:29;24.80;;;10.65;;
51686;SDS011;37774;52.192;4.584;2024-03-07T12:05:16;24.33;;;9.98;;
51686;SDS011;37774;52.192;4.584;2024-03-07T12:08:03;24.98;;;11.38;;
51686;SDS011;37774;52.192;4.584;2024-03-07T12:10:49;32.57;;;12.40;;
51686;SDS011;37774;52.192;4.584;2024-03-07T12:13:37;36.20;;;11.85;;
51686;SDS011;37774;52.192;4.584;2024-03-07T12:16:22;29.10;;;12.30;;
51686;SDS011;37774;52.192;4.584;2024-03-07T12:19:08;30.15;;;11.73;;
51686;SDS011;37774;52.192;4.584;2024-03-07T12:21:59;29.27;;;12.15;;
51686;SDS011;37774;52.192;4.584;2024-03-07T12:24:45;27.75;;;11.95;;
51686;SDS011;37774;52.192;4.584;2024-03-07T12:27:30;24.92;;;10.65;;
51686;SDS011;37774;52.192;4.584;2024-03-07T12:30:15;27.15;;;11.32;;
51686;SDS011;37774;52.192;4.584;2024-03-07T12:33:03;26.67;;;11.50;;
51686;SDS011;37774;52.192;4.584;2024-03-07T12:35:53;35.13;;;11.52;;
51686;SDS011;37774;52.192;4.584;2024-03-07T12:38:46;26.52;;;11.18;;
51686;SDS011;37774;52.192;4.584;2024-03-07T12:44:17;25.77;;;11.23;;
51686;SDS011;37774;52.192;4.584;2024-03-07T12:47:02;23.30;;;10.35;;
51686;SDS011;37774;52.192;4.584;2024-03-07T12:49:49;28.00;;;10.98;;
51686;SDS011;37774;52.192;4.584;2024-03-07T12:52:34;24.42;;;11.48;;
51686;SDS011;37774;52.192;4.584;2024-03-07T12:55:20;27.30;;;10.52;;
51686;SDS011;37774;52.192;4.584;2024-03-07T12:58:08;25.52;;;11.38;;
51686;SDS011;37774;52.192;4.584;2024-03-07T13:00:55;26.25;;;12.05;;
51686;SDS011;37774;52.192;4.584;2024-03-07T13:03:40;33.95;;;12.10;;
51686;SDS011;37774;52.192;4.584;2024-03-07T13:06:28;24.67;;;10.63;;
51686;SDS011;37774;52.192;4.584;2024-03-07T13:09:14;29.65;;;11.38;;
51686;SDS011;37774;52.192;4.584;2024-03-07T13:12:00;24.02;;;11.15;;
51686;SDS011;37774;52.192;4.584;2024-03-07T13:14:47;31.67;;;11.25;;
51686;SDS011;37774;52.192;4.584;2024-03-07T13:17:32;23.92;;;9.77;;
51686;SDS011;37774;52.192;4.584;2024-03-07T13:20:18;25.80;;;11.02;;
51686;SDS011;37774;52.192;4.584;2024-03-07T13:23:05;23.45;;;10.68;;
51686;SDS011;37774;52.192;4.584;2024-03-07T13:25:52;24.88;;;11.07;;
51686;SDS011;37774;52.192;4.584;2024-03-07T13:28:38;27.00;;;11.27;;
51686;SDS011;37774;52.192;4.584;2024-03-07T13:31:25;27.70;;;11.73;;
51686;SDS011;37774;52.192;4.584;2024-03-07T13:34:11;33.80;;;11.50;;
51686;SDS011;37774;52.192;4.584;2024-03-07T13:36:57;41.77;;;12.97;;
51686;SDS011;37774;52.192;4.584;2024-03-07T13:42:30;17.13;;;8.57;;
51686;SDS011;37774;52.192;4.584;2024-03-07T13:45:18;23.05;;;10.65;;
51686;SDS011;37774;52.192;4.584;2024-03-07T13:48:04;26.75;;;10.25;;
51686;SDS011;37774;52.192;4.584;2024-03-07T13:50:50;22.60;;;10.68;;
51686;SDS011;37774;52.192;4.584;2024-03-07T13:53:36;28.35;;;11.27;;
51686;SDS011;37774;52.192;4.584;2024-03-07T13:56:33;31.05;;;11.02;;
51686;SDS011;37774;52.192;4.584;2024-03-07T13:59:33;20.92;;;9.30;;
51686;SDS011;37774;52.192;4.584;2024-03-07T14:02:33;24.13;;;10.13;;
51686;SDS011;37774;52.192;4.584;2024-03-07T14:05:30;21.35;;;9.75;;
51686;SDS011;37774;52.192;4.584;2024-03-07T14:08:46;21.92;;;10.18;;
51686;SDS011;37774;52.192;4.584;2024-03-07T14:11:41;20.17;;;9.45;;
51686;SDS011;37774;52.192;4.584;2024-03-07T14:17:58;20.17;;;9.02;;
51686;SDS011;37774;52.192;4.584;2024-03-07T14:21:14;20.20;;;9.45;;
51686;SDS011;37774;52.192;4.584;2024-03-07T14:33:11;22.65;;;9.25;;
51686;SDS011;37774;52.192;4.584;2024-03-07T14:35:59;24.30;;;9.65;;
51686;SDS011;37774;52.192;4.584;2024-03-07T14:38:48;21.80;;;8.52;;
51686;SDS011;37774;52.192;4.584;2024-03-07T14:41:40;25.27;;;11.02;;
51686;SDS011;37774;52.192;4.584;2024-03-07T14:44:27;19.67;;;9.32;;
51686;SDS011;37774;52.192;4.584;2024-03-07T14:47:12;20.67;;;9.32;;
51686;SDS011;37774;52.192;4.584;2024-03-07T14:50:00;22.00;;;9.07;;
51686;SDS011;37774;52.192;4.584;2024-03-07T14:52:45;23.13;;;9.55;;
51686;SDS011;37774;52.192;4.584;2024-03-07T14:55:31;23.08;;;8.88;;
51686;SDS011;37774;52.192;4.584;2024-03-07T14:58:16;23.75;;;10.73;;
51686;SDS011;37774;52.192;4.584;2024-03-07T15:01:01;25.33;;;10.57;;
51686;SDS011;37774;52.192;4.584;2024-03-07T15:03:46;22.98;;;9.43;;
51686;SDS011;37774;52.192;4.584;2024-03-07T15:06:33;19.77;;;9.88;;
51686;SDS011;37774;52.192;4.584;2024-03-07T15:09:19;20.90;;;10.65;;
51686;SDS011;37774;52.192;4.584;2024-03-07T15:12:04;30.58;;;12.48;;
51686;SDS011;37774;52.192;4.584;2024-03-07T15:14:51;28.40;;;11.88;;
51686;SDS011;37774;52.192;4.584;2024-03-07T15:17:36;27.27;;;10.90;;
51686;SDS011;37774;52.192;4.584;2024-03-07T15:20:21;24.70;;;10.20;;
51686;SDS011;37774;52.192;4.584;2024-03-07T15:23:12;27.25;;;12.40;;
51686;SDS011;37774;52.192;4.584;2024-03-07T15:25:57;22.48;;;11.05;;
51686;SDS011;37774;52.192;4.584;2024-03-07T15:28:42;29.10;;;11.77;;
51686;SDS011;37774;52.192;4.584;2024-03-07T15:31:28;21.80;;;10.57;;
51686;SDS011;37774;52.192;4.584;2024-03-07T15:34:13;28.85;;;11.73;;
51686;SDS011;37774;52.192;4.584;2024-03-07T15:37:00;21.58;;;9.98;;
51686;SDS011;37774;52.192;4.584;2024-03-07T15:39:47;27.48;;;11.85;;
51686;SDS011;37774;52.192;4.584;2024-03-07T15:42:32;21.58;;;9.68;;
51686;SDS011;37774;52.192;4.584;2024-03-07T15:45:18;20.60;;;9.88;;
51686;SDS011;37774;52.192;4.584;2024-03-07T15:48:03;24.23;;;11.20;;
51686;SDS011;37774;52.192;4.584;2024-03-07T15:50:54;25.63;;;10.65;;
51686;SDS011;37774;52.192;4.584;2024-03-07T15:53:41;22.98;;;11.50;;
51686;SDS011;37774;52.192;4.584;2024-03-07T15:56:27;23.23;;;11.23;;
51686;SDS011;37774;52.192;4.584;2024-03-07T15:59:13;24.70;;;10.80;;
51686;SDS011;37774;52.192;4.584;2024-03-07T16:01:58;18.98;;;10.07;;
51686;SDS011;37774;52.192;4.584;2024-03-07T16:04:44;21.10;;;9.90;;
51686;SDS011;37774;52.192;4.584;2024-03-07T16:07:29;21.77;;;10.27;;
51686;SDS011;37774;52.192;4.584;2024-03-07T16:10:14;27.27;;;11.02;;
51686;SDS011;37774;52.192;4.584;2024-03-07T16:13:01;22.52;;;10.60;;
51686;SDS011;37774;52.192;4.584;2024-03-07T16:15:47;17.55;;;9.40;;
51686;SDS011;37774;52.192;4.584;2024-03-07T16:18:33;19.25;;;10.40;;
51686;SDS011;37774;52.192;4.584;2024-03-07T16:21:18;23.85;;;9.75;;
51686;SDS011;37774;52.192;4.584;2024-03-07T16:24:04;26.00;;;11.05;;
51686;SDS011;37774;52.192;4.584;2024-03-07T16:26:52;20.23;;;9.70;;
51686;SDS011;37774;52.192;4.584;2024-03-07T16:29:38;22.40;;;9.93;;
51686;SDS011;37774;52.192;4.584;2024-03-07T16:32:23;21.00;;;9.43;;
51686;SDS011;37774;52.192;4.584;2024-03-07T16:35:08;20.30;;;9.65;;
51686;SDS011;37774;52.192;4.584;2024-03-07T16:37:54;23.23;;;10.57;;